createdAt,value
2024-05-09T00:01:01.606Z,0
2024-05-09T00:02:10.821Z,0
2024-05-09T00:03:20.096Z,0
2024-05-09T00:04:29.114Z,0
2024-05-09T00:05:38.286Z,0
2024-05-09T00:07:56.607Z,0
2024-05-09T00:10:14.031Z,0
2024-05-09T00:11:22.195Z,0
2024-05-09T00:12:30.378Z,0
2024-05-09T00:13:39.533Z,0
2024-05-09T00:14:48.789Z,0
2024-05-09T00:15:58.052Z,0
2024-05-09T00:17:07.114Z,0
2024-05-09T00:18:16.320Z,0
2024-05-09T00:19:25.581Z,0
2024-05-09T00:20:34.642Z,0
2024-05-09T00:21:45.160Z,0
2024-05-09T00:22:52.091Z,0
2024-05-09T00:25:09.380Z,0
2024-05-09T00:26:18.536Z,0
2024-05-09T00:27:27.668Z,0
2024-05-09T00:28:36.839Z,0
2024-05-09T00:29:46.012Z,0
2024-05-09T00:30:55.206Z,0
2024-05-09T00:32:04.397Z,0
2024-05-09T00:33:13.573Z,0
2024-05-09T00:34:22.700Z,0
2024-05-09T00:35:31.981Z,0
2024-05-09T00:36:41.060Z,0
2024-05-09T00:37:50.235Z,0
2024-05-09T00:38:58.419Z,0
2024-05-09T00:40:07.594Z,0
2024-05-09T00:42:26.051Z,0
2024-05-09T00:43:34.154Z,0
2024-05-09T00:44:42.325Z,0
2024-05-09T00:45:51.493Z,0
2024-05-09T00:47:00.670Z,0
2024-05-09T00:48:09.894Z,0
2024-05-09T00:49:19.118Z,0
2024-05-09T00:50:28.181Z,0
2024-05-09T00:51:37.367Z,0
2024-05-09T00:52:46.567Z,0
2024-05-09T00:53:55.742Z,0
2024-05-09T00:55:03.934Z,0
2024-05-09T00:56:12.101Z,0
2024-05-09T00:57:21.273Z,0
2024-05-09T01:00:48.792Z,0
2024-05-09T01:01:57.972Z,0
2024-05-09T01:03:07.222Z,0
2024-05-09T01:04:16.333Z,0
2024-05-09T01:05:25.482Z,0
2024-05-09T01:06:34.658Z,0
2024-05-09T01:07:43.840Z,0
2024-05-09T01:08:52.042Z,0
2024-05-09T01:10:00.232Z,0
2024-05-09T01:11:09.483Z,0
2024-05-09T01:12:18.653Z,0
2024-05-09T01:13:27.760Z,0
2024-05-09T01:14:36.946Z,0
2024-05-09T01:16:55.256Z,0
2024-05-09T01:18:04.439Z,0
2024-05-09T01:19:13.616Z,0
2024-05-09T01:20:22.790Z,0
2024-05-09T01:21:31.968Z,0
2024-05-09T01:22:41.155Z,0
2024-05-09T01:23:50.316Z,0
2024-05-09T01:24:58.514Z,0
2024-05-09T01:26:07.676Z,0
2024-05-09T01:27:16.853Z,0
2024-05-09T01:28:26.021Z,0
2024-05-09T01:29:35.237Z,0
2024-05-09T01:30:44.370Z,0
2024-05-09T01:31:53.553Z,0
2024-05-09T01:33:01.736Z,0
2024-05-09T01:34:09.941Z,0
2024-05-09T01:35:19.110Z,0
2024-05-09T01:36:28.965Z,0
2024-05-09T01:37:37.473Z,0
2024-05-09T01:39:55.807Z,0
2024-05-09T01:42:14.142Z,0
2024-05-09T01:43:23.451Z,0
2024-05-09T01:44:32.487Z,0
2024-05-09T01:45:41.729Z,0
2024-05-09T01:46:49.865Z,0
2024-05-09T01:47:58.059Z,0
2024-05-09T01:49:07.286Z,0
2024-05-09T01:51:25.581Z,0
2024-05-09T01:52:34.748Z,0
2024-05-09T01:53:43.921Z,0
2024-05-09T01:54:53.121Z,0
2024-05-09T01:56:02.313Z,0
2024-05-09T01:57:11.460Z,0
2024-05-09T01:58:20.692Z,0
2024-05-09T01:59:29.789Z,0
2024-05-09T02:00:38.987Z,0
2024-05-09T02:01:48.152Z,0
2024-05-09T02:02:56.386Z,0
2024-05-09T02:04:05.505Z,0
2024-05-09T02:05:14.683Z,0
2024-05-09T02:06:23.847Z,0
2024-05-09T02:08:42.202Z,0
2024-05-09T02:09:50.402Z,0
2024-05-09T02:10:58.585Z,0
2024-05-09T02:12:07.831Z,0
2024-05-09T02:13:17.221Z,0
2024-05-09T02:14:26.104Z,0
2024-05-09T02:15:35.272Z,0
2024-05-09T02:16:44.450Z,0
2024-05-09T02:17:53.682Z,0
2024-05-09T02:19:02.804Z,0
2024-05-09T02:20:11.968Z,0
2024-05-09T02:21:20.164Z,0
2024-05-09T02:22:28.371Z,0
2024-05-09T02:23:37.542Z,0
2024-05-09T02:24:46.708Z,0
2024-05-09T02:27:05.067Z,0
2024-05-09T02:28:14.258Z,0
2024-05-09T02:29:23.448Z,0
2024-05-09T02:30:32.593Z,0
2024-05-09T02:31:42.067Z,0
2024-05-09T02:32:50.925Z,0
2024-05-09T02:34:00.113Z,0
2024-05-09T02:35:09.277Z,0
2024-05-09T02:36:18.454Z,0
2024-05-09T02:37:26.764Z,0
2024-05-09T02:38:35.870Z,0
2024-05-09T02:39:44.987Z,0
2024-05-09T02:40:54.172Z,0
2024-05-09T02:43:12.493Z,0
2024-05-09T02:44:20.705Z,0
2024-05-09T02:45:28.891Z,0
2024-05-09T02:46:38.065Z,0
2024-05-09T02:47:47.249Z,0
2024-05-09T02:48:56.417Z,0
2024-05-09T02:50:05.591Z,0
2024-05-09T02:51:14.761Z,0
2024-05-09T02:52:23.935Z,0
2024-05-09T02:53:33.116Z,0
2024-05-09T02:54:42.284Z,0
2024-05-09T02:55:50.481Z,0
2024-05-09T02:56:58.674Z,0
2024-05-09T02:58:07.855Z,0
2024-05-09T03:00:26.178Z,0
2024-05-09T03:01:35.361Z,0
2024-05-09T03:02:44.532Z,0
2024-05-09T03:03:53.716Z,0
2024-05-09T03:05:02.912Z,0
2024-05-09T03:06:12.064Z,0
2024-05-09T03:07:21.245Z,0
2024-05-09T03:08:30.408Z,0
2024-05-09T03:09:39.582Z,0
2024-05-09T03:10:48.761Z,0
2024-05-09T03:11:56.949Z,0
2024-05-09T03:13:06.121Z,0
2024-05-09T03:14:15.301Z,0
2024-05-09T03:15:24.458Z,0
2024-05-09T03:17:42.819Z,0
2024-05-09T03:18:51.008Z,0
2024-05-09T03:19:59.202Z,0
2024-05-09T03:21:08.387Z,0
2024-05-09T03:22:17.550Z,0
2024-05-09T03:23:26.729Z,0
2024-05-09T03:24:35.985Z,0
2024-05-09T03:25:45.069Z,0
2024-05-09T03:26:54.241Z,0
2024-05-09T03:28:03.427Z,0
2024-05-09T03:29:12.609Z,0
2024-05-09T03:30:20.793Z,0
2024-05-09T03:31:29.003Z,0
2024-05-09T03:32:38.174Z,0
2024-05-09T03:34:56.497Z,0
2024-05-09T03:36:05.676Z,0
2024-05-09T03:37:14.844Z,0
2024-05-09T03:38:24.024Z,0
2024-05-09T03:39:33.188Z,0
2024-05-09T03:40:42.430Z,0
2024-05-09T03:41:51.547Z,0
2024-05-09T03:43:00.711Z,0
2024-05-09T03:44:09.892Z,0
2024-05-09T03:45:19.070Z,0
2024-05-09T03:46:27.251Z,0
2024-05-09T03:47:36.467Z,0
2024-05-09T03:48:45.610Z,0
2024-05-09T03:49:54.787Z,0
2024-05-09T03:52:13.122Z,0
2024-05-09T03:53:21.348Z,0
2024-05-09T03:54:29.530Z,0
2024-05-09T03:55:38.684Z,0
2024-05-09T03:56:47.862Z,0
2024-05-09T03:57:57.068Z,0
2024-05-09T03:59:06.264Z,0
2024-05-09T04:00:15.381Z,0
2024-05-09T04:01:24.629Z,0
2024-05-09T04:02:35.136Z,0
2024-05-09T04:03:42.899Z,0
2024-05-09T04:04:51.095Z,0
2024-05-09T04:05:59.293Z,5
2024-05-09T04:07:08.466Z,5
2024-05-09T04:09:26.893Z,5
2024-05-09T04:10:36.010Z,5
2024-05-09T04:11:45.159Z,5
2024-05-09T04:12:54.340Z,5
2024-05-09T04:14:03.547Z,5
2024-05-09T04:15:12.682Z,5
2024-05-09T04:16:21.861Z,5
2024-05-09T04:17:31.033Z,5
2024-05-09T04:18:40.203Z,5
2024-05-09T04:19:49.383Z,5
2024-05-09T04:22:06.737Z,5
2024-05-09T04:23:15.013Z,5
2024-05-09T04:24:23.134Z,5
2024-05-09T04:26:41.494Z,11
2024-05-09T04:27:50.663Z,11
2024-05-09T04:28:59.824Z,11
2024-05-09T04:30:08.988Z,11
2024-05-09T04:31:18.199Z,11
2024-05-09T04:32:27.438Z,11
2024-05-09T04:33:36.528Z,11
2024-05-09T04:35:54.889Z,11
2024-05-09T04:37:04.044Z,11
2024-05-09T04:38:13.216Z,11
2024-05-09T04:39:21.405Z,11
2024-05-09T04:40:31.029Z,11
2024-05-09T04:41:39.771Z,11
2024-05-09T04:43:58.094Z,11
2024-05-09T04:45:07.272Z,16
2024-05-09T04:46:16.436Z,16
2024-05-09T04:47:25.607Z,16
2024-05-09T04:48:34.799Z,16
2024-05-09T04:49:43.997Z,16
2024-05-09T04:50:53.141Z,16
2024-05-09T04:52:02.313Z,16
2024-05-09T04:53:11.627Z,16
2024-05-09T04:54:19.685Z,16
2024-05-09T04:55:28.839Z,16
2024-05-09T04:56:38.025Z,16
2024-05-09T04:57:47.234Z,16
2024-05-09T04:58:56.418Z,16
2024-05-09T05:00:04.595Z,16
2024-05-09T05:02:21.948Z,16
2024-05-09T05:03:31.122Z,16
2024-05-09T05:04:40.279Z,16
2024-05-09T05:05:49.458Z,16
2024-05-09T05:06:58.898Z,16
2024-05-09T05:08:07.806Z,16
2024-05-09T05:09:16.977Z,22
2024-05-09T05:10:26.205Z,22
2024-05-09T05:11:35.329Z,22
2024-05-09T05:12:44.502Z,22
2024-05-09T05:13:53.679Z,22
2024-05-09T05:15:02.910Z,22
2024-05-09T05:16:11.924Z,22
2024-05-09T05:18:29.372Z,22
2024-05-09T05:19:37.660Z,22
2024-05-09T05:20:45.779Z,22
2024-05-09T05:21:54.943Z,22
2024-05-09T05:23:04.109Z,22
2024-05-09T05:24:13.278Z,22
2024-05-09T05:25:22.460Z,22
2024-05-09T05:26:31.643Z,22
2024-05-09T05:27:40.819Z,22
2024-05-09T05:28:49.995Z,22
2024-05-09T05:29:59.176Z,22
2024-05-09T05:31:07.365Z,22
2024-05-09T05:32:15.561Z,22
2024-05-09T05:33:24.840Z,22
2024-05-09T05:35:43.068Z,22
2024-05-09T05:36:52.253Z,28
2024-05-09T05:38:01.425Z,28
2024-05-09T05:39:10.598Z,28
2024-05-09T05:40:19.758Z,28
2024-05-09T05:41:28.973Z,28
2024-05-09T05:42:38.117Z,28
2024-05-09T05:43:47.287Z,28
2024-05-09T05:44:56.457Z,28
2024-05-09T05:46:05.629Z,28
2024-05-09T05:47:13.826Z,28
2024-05-09T05:48:23.002Z,28
2024-05-09T05:50:41.339Z,28
2024-05-09T05:52:58.735Z,28
2024-05-09T05:54:07.953Z,28
2024-05-09T05:55:15.105Z,28
2024-05-09T05:57:33.461Z,28
2024-05-09T05:58:42.687Z,28
2024-05-09T05:59:51.850Z,28
2024-05-09T06:01:00.971Z,28
2024-05-09T06:02:10.142Z,28
2024-05-09T06:03:19.367Z,28
2024-05-09T06:04:28.493Z,28
2024-05-09T06:05:37.767Z,28
2024-05-09T06:06:46.910Z,28
2024-05-09T06:07:56.025Z,28
2024-05-09T06:10:14.361Z,33
2024-05-09T06:11:22.538Z,33
2024-05-09T06:12:31.732Z,33
2024-05-09T06:13:40.887Z,33
2024-05-09T06:14:50.083Z,33
2024-05-09T06:15:59.295Z,33
2024-05-09T06:17:08.416Z,33
2024-05-09T06:18:17.587Z,33
2024-05-09T06:19:26.756Z,33
2024-05-09T06:20:35.922Z,33
2024-05-09T06:21:44.147Z,33
2024-05-09T06:22:52.326Z,33
2024-05-09T06:24:01.499Z,33
2024-05-09T06:25:10.677Z,33
2024-05-09T06:27:29.030Z,33
2024-05-09T06:28:38.197Z,33
2024-05-09T06:29:47.968Z,33
2024-05-09T06:30:56.536Z,33
2024-05-09T06:32:05.713Z,33
2024-05-09T06:33:15.024Z,33
2024-05-09T06:34:24.065Z,33
2024-05-09T06:35:33.247Z,33
2024-05-09T06:36:42.416Z,33
2024-05-09T06:37:50.599Z,33
2024-05-09T06:38:59.905Z,33
2024-05-09T06:40:08.949Z,33
2024-05-09T06:41:18.382Z,33
2024-05-09T06:42:27.375Z,33
2024-05-09T06:44:45.659Z,33
2024-05-09T06:45:54.859Z,33
2024-05-09T06:47:04.018Z,33
2024-05-09T06:48:13.156Z,33
2024-05-09T06:49:22.341Z,39
2024-05-09T06:50:31.564Z,39
2024-05-09T06:51:39.744Z,39
2024-05-09T06:52:47.944Z,39
2024-05-09T06:53:57.095Z,39
2024-05-09T06:55:06.348Z,39
2024-05-09T06:56:15.432Z,39
2024-05-09T06:57:24.671Z,39
2024-05-09T06:58:33.948Z,39
2024-05-09T06:59:42.946Z,39
2024-05-09T07:02:01.311Z,39
2024-05-09T07:03:10.463Z,39
2024-05-09T07:04:19.683Z,39
2024-05-09T07:05:29.890Z,39
2024-05-09T07:06:38.059Z,39
2024-05-09T07:07:46.214Z,39
2024-05-09T07:08:55.587Z,39
2024-05-09T07:10:04.581Z,39
2024-05-09T07:11:14.011Z,39
2024-05-09T07:12:22.895Z,39
2024-05-09T07:13:32.265Z,39
2024-05-09T07:14:41.225Z,39
2024-05-09T07:15:50.395Z,39
2024-05-09T07:16:59.556Z,39
2024-05-09T07:19:18.025Z,39
2024-05-09T07:20:27.086Z,39
2024-05-09T07:21:36.257Z,39
2024-05-09T07:23:53.661Z,39
2024-05-09T07:25:01.825Z,39
2024-05-09T07:26:10.028Z,39
2024-05-09T07:27:19.230Z,45
2024-05-09T07:28:28.358Z,45
2024-05-09T07:29:37.544Z,45
2024-05-09T07:30:46.759Z,45
2024-05-09T07:31:55.880Z,45
2024-05-09T07:33:05.220Z,45
2024-05-09T07:34:14.235Z,45
2024-05-09T07:37:41.744Z,45
2024-05-09T07:38:49.977Z,45
2024-05-09T07:39:58.204Z,45
2024-05-09T07:41:07.327Z,45
2024-05-09T07:42:16.506Z,45
2024-05-09T07:43:25.669Z,45
2024-05-09T07:45:44.033Z,45
2024-05-09T07:46:53.207Z,45
2024-05-09T07:49:11.540Z,50
2024-05-09T07:50:20.715Z,50
2024-05-09T07:51:29.881Z,50
2024-05-09T07:53:48.239Z,50
2024-05-09T07:54:56.436Z,50
2024-05-09T07:56:05.596Z,50
2024-05-09T07:57:14.777Z,50
2024-05-09T07:58:23.944Z,50
2024-05-09T07:59:33.121Z,50
2024-05-09T08:00:42.293Z,50
2024-05-09T08:01:51.627Z,50
2024-05-09T08:03:00.651Z,50
2024-05-09T08:04:09.816Z,50
2024-05-09T08:05:18.980Z,56
2024-05-09T08:06:28.274Z,56
2024-05-09T08:07:37.339Z,56
2024-05-09T08:11:04.861Z,56
2024-05-09T08:12:13.058Z,56
2024-05-09T08:13:22.397Z,56
2024-05-09T08:14:31.392Z,56
2024-05-09T08:15:40.563Z,56
2024-05-09T08:16:49.746Z,56
2024-05-09T08:17:59.964Z,56
2024-05-09T08:19:08.084Z,56
2024-05-09T08:20:17.262Z,56
2024-05-09T08:21:26.501Z,61
2024-05-09T08:22:35.604Z,61
2024-05-09T08:23:44.769Z,61
2024-05-09T08:24:53.943Z,61
2024-05-09T08:26:03.120Z,61
2024-05-09T08:28:20.536Z,61
2024-05-09T08:29:29.656Z,61
2024-05-09T08:30:38.835Z,61
2024-05-09T08:31:48.030Z,61
2024-05-09T08:32:57.182Z,61
2024-05-09T08:34:06.363Z,61
2024-05-09T08:35:14.728Z,61
2024-05-09T08:36:22.752Z,67
2024-05-09T08:37:31.917Z,67
2024-05-09T08:38:41.096Z,67
2024-05-09T08:40:59.562Z,67
2024-05-09T08:42:08.624Z,67
2024-05-09T08:43:18.005Z,67
2024-05-09T08:45:36.137Z,67
2024-05-09T08:46:45.311Z,67
2024-05-09T08:47:54.489Z,67
2024-05-09T08:49:02.734Z,73
2024-05-09T08:50:11.020Z,73
2024-05-09T08:51:20.155Z,73
2024-05-09T08:52:29.230Z,73
2024-05-09T08:53:38.402Z,73
2024-05-09T08:54:47.612Z,73
2024-05-09T08:55:56.910Z,78
2024-05-09T08:57:05.945Z,78
2024-05-09T08:58:15.074Z,78
2024-05-09T08:59:24.264Z,78
2024-05-09T09:00:32.465Z,78
2024-05-09T09:02:49.820Z,78
2024-05-09T09:03:59.060Z,78
2024-05-09T09:05:08.183Z,78
2024-05-09T09:06:17.354Z,78
2024-05-09T09:07:26.578Z,78
2024-05-09T09:08:35.822Z,78
2024-05-09T09:09:44.880Z,78
2024-05-09T09:12:03.238Z,84
2024-05-09T09:13:12.465Z,84
2024-05-09T09:14:20.576Z,84
2024-05-09T09:15:28.780Z,84
2024-05-09T09:16:37.954Z,84
2024-05-09T09:17:47.125Z,84
2024-05-09T09:18:56.312Z,84
2024-05-09T09:20:05.475Z,84
2024-05-09T09:21:14.651Z,84
2024-05-09T09:22:23.806Z,84
2024-05-09T09:23:32.992Z,84
2024-05-09T09:24:42.175Z,84
2024-05-09T09:25:50.380Z,84
2024-05-09T09:26:58.553Z,90
2024-05-09T09:28:07.725Z,90
2024-05-09T09:29:17.106Z,90
2024-05-09T09:30:26.071Z,90
2024-05-09T09:31:35.251Z,90
2024-05-09T09:32:44.417Z,90
2024-05-09T09:33:53.621Z,90
2024-05-09T09:35:02.762Z,90
2024-05-09T09:37:21.172Z,95
2024-05-09T09:38:30.398Z,95
2024-05-09T09:39:39.472Z,95
2024-05-09T09:40:48.642Z,101
2024-05-09T09:41:56.832Z,95
2024-05-09T09:43:06.024Z,101
2024-05-09T09:44:15.183Z,101
2024-05-09T09:45:24.358Z,101
2024-05-09T09:46:33.554Z,101
2024-05-09T09:47:42.693Z,101
2024-05-09T09:48:51.882Z,106
2024-05-09T09:50:00.079Z,106
2024-05-09T09:51:08.283Z,112
2024-05-09T09:52:17.431Z,112
2024-05-09T09:54:35.787Z,123
2024-05-09T09:55:44.949Z,123
2024-05-09T09:56:54.227Z,129
2024-05-09T09:58:03.311Z,129
2024-05-09T09:59:12.476Z,129
2024-05-09T10:00:21.666Z,112
2024-05-09T10:01:30.838Z,106
2024-05-09T10:02:40.005Z,112
2024-05-09T10:03:49.198Z,140
2024-05-09T10:04:58.353Z,140
2024-05-09T10:06:06.533Z,151
2024-05-09T10:07:15.737Z,191
2024-05-09T10:08:26.140Z,202
2024-05-09T10:09:34.060Z,106
2024-05-09T10:11:52.414Z,151
2024-05-09T10:13:00.612Z,230
2024-05-09T10:14:08.845Z,331
2024-05-09T10:15:17.974Z,174
2024-05-09T10:16:27.147Z,292
2024-05-09T10:17:36.327Z,337
2024-05-09T10:18:45.500Z,382
2024-05-09T10:19:54.756Z,444
2024-05-09T10:21:03.865Z,697
2024-05-09T10:22:13.008Z,933
2024-05-09T10:23:22.191Z,1001
2024-05-09T10:24:30.532Z,708
2024-05-09T10:25:38.566Z,292
2024-05-09T10:26:48.026Z,168
2024-05-09T10:29:06.098Z,421
2024-05-09T10:30:15.310Z,382
2024-05-09T10:31:24.442Z,866
2024-05-09T10:32:33.704Z,1035
2024-05-09T10:33:42.897Z,1153
2024-05-09T10:34:52.155Z,1175
2024-05-09T10:36:01.152Z,1051
2024-05-09T10:37:10.576Z,1085
2024-05-09T10:38:19.522Z,1181
2024-05-09T10:39:28.654Z,1344
2024-05-09T10:40:36.930Z,1299
2024-05-09T10:41:46.034Z,1293
2024-05-09T10:42:55.240Z,1293
2024-05-09T10:44:04.368Z,1215
2024-05-09T10:46:22.772Z,826
2024-05-09T10:47:30.919Z,483
2024-05-09T10:48:39.095Z,1215
2024-05-09T10:49:48.292Z,1170
2024-05-09T10:50:57.455Z,1136
2024-05-09T10:52:06.616Z,1012
2024-05-09T10:53:15.793Z,978
2024-05-09T10:54:24.976Z,1119
2024-05-09T10:55:34.147Z,1136
2024-05-09T10:56:43.329Z,1147
2024-05-09T10:57:52.513Z,1299
2024-05-09T10:59:00.723Z,1316
2024-05-09T11:00:08.891Z,714
2024-05-09T11:01:18.103Z,877
2024-05-09T11:03:36.416Z,123
2024-05-09T11:04:45.621Z,118
2024-05-09T11:05:54.769Z,112
2024-05-09T11:07:03.938Z,118
2024-05-09T11:08:13.104Z,140
2024-05-09T11:09:22.280Z,163
2024-05-09T11:10:31.460Z,202
2024-05-09T11:11:40.637Z,613
2024-05-09T11:12:49.863Z,405
2024-05-09T11:13:58.972Z,174
2024-05-09T11:15:07.189Z,146
2024-05-09T11:16:16.342Z,135
2024-05-09T11:17:25.533Z,140
2024-05-09T11:18:34.712Z,157
2024-05-09T11:20:53.032Z,191
2024-05-09T11:22:02.093Z,703
2024-05-09T11:23:09.436Z,1333
2024-05-09T11:24:18.627Z,1350
2024-05-09T11:25:27.803Z,1293
2024-05-09T11:26:36.948Z,1333
2024-05-09T11:27:46.122Z,1321
2024-05-09T11:28:55.545Z,1310
2024-05-09T11:30:03.506Z,1321
2024-05-09T11:31:12.774Z,151
2024-05-09T11:32:21.838Z,123
2024-05-09T11:33:30.029Z,112
2024-05-09T11:34:38.235Z,112
2024-05-09T11:35:47.477Z,112
2024-05-09T11:38:05.760Z,118
2024-05-09T11:39:15.004Z,118
2024-05-09T11:40:24.098Z,112
2024-05-09T11:41:33.405Z,112
2024-05-09T11:42:42.450Z,123
2024-05-09T11:43:51.659Z,129
2024-05-09T11:45:00.795Z,140
2024-05-09T11:46:10.039Z,151
2024-05-09T11:47:19.143Z,157
2024-05-09T11:48:28.315Z,264
2024-05-09T11:49:36.514Z,742
2024-05-09T11:50:45.687Z,1400
2024-05-09T11:51:55.099Z,1485
2024-05-09T11:53:04.082Z,1361
2024-05-09T11:54:13.216Z,1372
2024-05-09T11:55:22.420Z,1400
2024-05-09T11:56:31.574Z,1400
2024-05-09T11:57:40.728Z,1344
2024-05-09T11:58:50.016Z,1361
2024-05-09T11:59:59.171Z,1355
2024-05-09T12:01:08.321Z,1417
2024-05-09T12:02:17.423Z,1406
2024-05-09T12:03:26.604Z,1552
2024-05-09T12:04:34.811Z,1305
2024-05-09T12:05:43.009Z,1254
2024-05-09T12:06:52.165Z,1361
2024-05-09T12:08:01.351Z,1344
2024-05-09T12:09:10.499Z,1327
2024-05-09T12:10:19.675Z,1231
2024-05-09T12:12:38.026Z,1440
2024-05-09T12:14:56.371Z,202
2024-05-09T12:16:05.670Z,191
2024-05-09T12:17:14.741Z,202
2024-05-09T12:18:23.002Z,320
2024-05-09T12:19:31.120Z,309
2024-05-09T12:20:40.338Z,298
2024-05-09T12:21:49.520Z,292
2024-05-09T12:22:58.709Z,286
2024-05-09T12:24:07.801Z,286
2024-05-09T12:25:16.990Z,286
2024-05-09T12:26:26.194Z,281
2024-05-09T12:27:35.336Z,286
2024-05-09T12:29:53.684Z,298
2024-05-09T12:31:02.864Z,298
2024-05-09T12:32:12.043Z,298
2024-05-09T12:33:21.220Z,303
2024-05-09T12:34:29.405Z,309
2024-05-09T12:35:38.951Z,303
2024-05-09T12:36:47.870Z,298
2024-05-09T12:37:56.918Z,298
2024-05-09T12:39:06.104Z,298
2024-05-09T12:40:15.277Z,303
2024-05-09T12:41:24.497Z,309
2024-05-09T12:42:32.637Z,326
2024-05-09T12:43:40.872Z,264
2024-05-09T12:44:50.027Z,241
2024-05-09T12:47:08.357Z,348
2024-05-09T12:48:17.870Z,365
2024-05-09T12:49:26.697Z,365
2024-05-09T12:50:36.071Z,376
2024-05-09T12:51:45.062Z,478
2024-05-09T12:52:54.218Z,990
2024-05-09T12:54:03.549Z,213
2024-05-09T12:55:12.710Z,219
2024-05-09T12:56:21.742Z,258
2024-05-09T12:57:31.095Z,1102
2024-05-09T12:58:39.201Z,1282
2024-05-09T12:59:48.498Z,1265
2024-05-09T13:00:57.465Z,1260
2024-05-09T13:03:16.023Z,1271
2024-05-09T13:04:24.174Z,1299
2024-05-09T13:05:32.202Z,1254
2024-05-09T13:06:41.379Z,1153
2024-05-09T13:07:50.561Z,1175
2024-05-09T13:08:59.723Z,1366
2024-05-09T13:10:08.905Z,1305
2024-05-09T13:11:18.099Z,1299
2024-05-09T13:12:27.231Z,1350
2024-05-09T13:13:36.436Z,1299
2024-05-09T13:14:45.691Z,1260
2024-05-09T13:15:53.917Z,1361
2024-05-09T13:17:01.985Z,1338
2024-05-09T13:18:11.229Z,1282
2024-05-09T13:19:20.343Z,1378
2024-05-09T13:21:38.680Z,1276
2024-05-09T13:22:47.855Z,1282
2024-05-09T13:23:57.042Z,1389
2024-05-09T13:25:06.210Z,1215
2024-05-09T13:26:15.384Z,1231
2024-05-09T13:27:24.565Z,1096
2024-05-09T13:28:33.731Z,928
2024-05-09T13:29:42.903Z,1153
2024-05-09T13:30:52.094Z,1395
2024-05-09T13:32:00.286Z,1333
2024-05-09T13:33:09.450Z,1248
2024-05-09T13:34:18.622Z,1299
2024-05-09T13:35:27.790Z,1243
2024-05-09T13:36:36.951Z,1248
2024-05-09T13:38:55.312Z,1181
2024-05-09T13:40:04.496Z,1125
2024-05-09T13:41:13.679Z,1192
2024-05-09T13:42:22.899Z,1248
2024-05-09T13:43:32.013Z,1248
2024-05-09T13:44:41.239Z,1181
2024-05-09T13:45:50.364Z,1181
2024-05-09T13:46:58.555Z,1141
2024-05-09T13:48:09.285Z,1170
2024-05-09T13:49:17.117Z,1260
2024-05-09T13:50:26.067Z,1215
2024-05-09T13:51:35.361Z,866
2024-05-09T13:52:44.430Z,810
2024-05-09T13:53:53.602Z,697
2024-05-09T13:56:11.940Z,1035
2024-05-09T13:57:21.159Z,1018
2024-05-09T13:58:30.298Z,1001
2024-05-09T13:59:39.457Z,1080
2024-05-09T14:00:48.809Z,1141
2024-05-09T14:01:56.838Z,1091
2024-05-09T14:03:05.998Z,945
2024-05-09T14:04:15.181Z,1051
2024-05-09T14:05:24.353Z,1040
2024-05-09T14:07:42.805Z,1147
2024-05-09T14:08:51.881Z,1203
2024-05-09T14:11:10.229Z,1063
2024-05-09T14:13:27.597Z,1153
2024-05-09T14:14:35.804Z,1035
2024-05-09T14:15:44.309Z,961
2024-05-09T14:16:53.212Z,967
2024-05-09T14:18:02.396Z,1012
2024-05-09T14:19:11.515Z,1012
2024-05-09T14:20:20.686Z,843
2024-05-09T14:21:29.873Z,770
2024-05-09T14:22:39.046Z,787
2024-05-09T14:23:48.242Z,821
2024-05-09T14:24:57.388Z,894
2024-05-09T14:26:05.635Z,905
2024-05-09T14:27:13.774Z,939
2024-05-09T14:28:22.998Z,765
2024-05-09T14:29:32.124Z,691
2024-05-09T14:30:41.307Z,736
2024-05-09T14:31:50.497Z,568
2024-05-09T14:32:59.743Z,466
2024-05-09T14:34:08.920Z,528
2024-05-09T14:35:18.007Z,573
2024-05-09T14:36:27.389Z,596
2024-05-09T14:37:36.365Z,658
2024-05-09T14:38:45.707Z,675
2024-05-09T14:39:54.704Z,691
2024-05-09T14:41:03.904Z,607
2024-05-09T14:42:12.144Z,601
2024-05-09T14:43:21.364Z,641
2024-05-09T14:44:30.407Z,506
2024-05-09T14:47:57.946Z,646
2024-05-09T14:49:06.129Z,624
2024-05-09T14:50:14.367Z,624
2024-05-09T14:51:23.513Z,573
2024-05-09T14:52:32.695Z,500
2024-05-09T14:53:41.926Z,517
2024-05-09T14:54:51.029Z,450
2024-05-09T14:56:00.509Z,483
2024-05-09T14:57:09.393Z,466
2024-05-09T14:58:18.561Z,461
2024-05-09T14:59:27.710Z,517
2024-05-09T15:00:35.940Z,450
2024-05-09T15:02:53.283Z,551
2024-05-09T15:05:11.852Z,489
2024-05-09T15:06:20.919Z,450
2024-05-09T15:07:29.976Z,478
2024-05-09T15:08:39.158Z,433
2024-05-09T15:09:48.537Z,399
2024-05-09T15:10:57.512Z,410
2024-05-09T15:12:06.663Z,399
2024-05-09T15:13:15.859Z,388
2024-05-09T15:14:24.044Z,399
2024-05-09T15:15:32.247Z,388
2024-05-09T15:16:41.413Z,416
2024-05-09T15:17:50.587Z,427
2024-05-09T15:18:59.956Z,399
2024-05-09T15:20:08.941Z,433
2024-05-09T15:22:26.296Z,270
2024-05-09T15:23:34.531Z,326
2024-05-09T15:24:43.689Z,343
2024-05-09T15:25:52.894Z,326
2024-05-09T15:27:02.031Z,298
2024-05-09T15:28:11.235Z,326
2024-05-09T15:29:20.386Z,292
2024-05-09T15:30:29.550Z,253
2024-05-09T15:31:38.845Z,213
2024-05-09T15:32:47.915Z,180
2024-05-09T15:33:57.165Z,168
2024-05-09T15:35:06.241Z,163
2024-05-09T15:36:15.406Z,157
2024-05-09T15:37:24.611Z,157
2024-05-09T15:39:41.970Z,146
2024-05-09T15:40:50.139Z,140
2024-05-09T15:41:59.337Z,135
2024-05-09T15:43:08.500Z,135
2024-05-09T15:44:17.743Z,129
2024-05-09T15:45:26.898Z,123
2024-05-09T15:46:35.149Z,118
2024-05-09T15:47:43.229Z,112
2024-05-09T15:48:52.512Z,112
2024-05-09T15:50:01.589Z,106
2024-05-09T15:51:11.006Z,101
2024-05-09T15:52:19.933Z,101
2024-05-09T15:53:29.109Z,95
2024-05-09T15:54:38.277Z,95
2024-05-09T15:55:47.573Z,90
2024-05-09T15:56:56.731Z,90
2024-05-09T15:58:05.835Z,90
2024-05-09T15:59:15.074Z,90
2024-05-09T16:00:24.176Z,84
2024-05-09T16:01:33.328Z,84
2024-05-09T16:02:41.535Z,78
2024-05-09T16:03:50.685Z,78
2024-05-09T16:04:59.963Z,78
2024-05-09T16:06:09.075Z,78
2024-05-09T16:07:18.211Z,78
2024-05-09T16:08:27.390Z,78
2024-05-09T16:09:36.561Z,78
2024-05-09T16:10:45.726Z,78
2024-05-09T16:11:54.935Z,78
2024-05-09T16:14:13.253Z,78
2024-05-09T16:15:22.425Z,73
2024-05-09T16:16:31.668Z,73
2024-05-09T16:17:39.798Z,73
2024-05-09T16:18:49.015Z,73
2024-05-09T16:19:58.150Z,73
2024-05-09T16:21:07.308Z,73
2024-05-09T16:22:16.563Z,73
2024-05-09T16:23:25.844Z,73
2024-05-09T16:25:44.069Z,73
2024-05-09T16:26:53.185Z,73
2024-05-09T16:28:02.400Z,73
2024-05-09T16:29:11.589Z,73
2024-05-09T16:31:30.073Z,73
2024-05-09T16:32:41.461Z,73
2024-05-09T16:33:47.261Z,73
2024-05-09T16:34:55.435Z,73
2024-05-09T16:36:04.645Z,73
2024-05-09T16:37:13.774Z,67
2024-05-09T16:38:23.129Z,67
2024-05-09T16:39:32.128Z,67
2024-05-09T16:40:41.577Z,67
2024-05-09T16:41:50.528Z,61
2024-05-09T16:42:59.673Z,67
2024-05-09T16:44:07.901Z,67
2024-05-09T16:45:16.059Z,67
2024-05-09T16:46:25.225Z,61
2024-05-09T16:47:34.391Z,61
2024-05-09T16:48:43.582Z,61
2024-05-09T16:49:52.770Z,61
2024-05-09T16:51:01.914Z,61
2024-05-09T16:52:11.087Z,61
2024-05-09T16:53:20.283Z,61
2024-05-09T16:54:29.492Z,61
2024-05-09T16:55:38.590Z,61
2024-05-09T16:56:47.777Z,61
2024-05-09T16:57:56.985Z,61
2024-05-09T16:59:06.145Z,61
2024-05-09T17:00:14.330Z,61
2024-05-09T17:01:23.584Z,61
2024-05-09T17:02:32.669Z,67
2024-05-09T17:03:41.849Z,67
2024-05-09T17:06:00.306Z,73
2024-05-09T17:07:09.382Z,73
2024-05-09T17:08:18.606Z,73
2024-05-09T17:09:27.741Z,78
2024-05-09T17:10:36.896Z,78
2024-05-09T17:11:46.084Z,78
2024-05-09T17:12:55.237Z,78
2024-05-09T17:14:04.407Z,78
2024-05-09T17:15:12.610Z,78
2024-05-09T17:16:21.771Z,78
2024-05-09T17:17:30.996Z,78
2024-05-09T17:18:40.164Z,78
2024-05-09T17:19:49.282Z,78
2024-05-09T17:20:58.507Z,78
2024-05-09T17:23:16.805Z,78
2024-05-09T17:24:25.989Z,73
2024-05-09T17:25:35.168Z,73
2024-05-09T17:26:44.998Z,73
2024-05-09T17:27:53.503Z,73
2024-05-09T17:29:02.808Z,67
2024-05-09T17:30:11.836Z,67
2024-05-09T17:31:20.091Z,67
2024-05-09T17:32:29.216Z,67
2024-05-09T17:33:38.519Z,67
2024-05-09T17:34:47.590Z,61
2024-05-09T17:35:56.841Z,61
2024-05-09T17:37:05.937Z,61
2024-05-09T17:38:15.080Z,56
2024-05-09T17:40:33.461Z,50
2024-05-09T17:41:42.793Z,50
2024-05-09T17:42:51.851Z,50
2024-05-09T17:44:01.161Z,50
2024-05-09T17:45:10.120Z,45